Time;durP1;ratioP1;P1;durP2;ratioP2;P2;SDS_P1;SDS_P2;PMS_P1;PMS_P2;Temp;Humidity;BMP_temperature;BMP_pressure;BME280_temperature;BME280_humidity;BME280_pressure;Samples;Min_cycle;Max_cycle;Signal;HPM_P1;HPM_P2
2023/08/15 00:02:34;;;;;;;19.90;18.90;;;23.70;84.10;;;;;;4904654;29;20469;-85
2023/08/15 00:05:09;;;;;;;19.23;18.43;;;23.70;99.90;;;;;;4906129;29;20500;-85
2023/08/15 00:07:46;;;;;;;19.53;18.63;;;23.70;80.80;;;;;;4908237;29;20986;-85
2023/08/15 00:10:18;;;;;;;19.30;18.50;;;23.70;24.80;;;;;;4910821;29;20451;-86
2023/08/15 00:12:50;;;;;;;19.20;18.30;;;23.70;1.00;;;;;;4907003;29;20480;-86
2023/08/15 00:15:24;;;;;;;19.40;18.27;;;23.70;61.60;;;;;;4905357;29;20569;-85
2023/08/15 00:17:58;;;;;;;19.13;18.23;;;23.70;99.90;;;;;;4910585;29;20568;-87
2023/08/15 00:20:29;;;;;;;18.70;17.80;;;23.70;99.90;;;;;;4907661;29;20455;-86
2023/08/15 00:23:05;;;;;;;18.73;18.00;;;23.60;99.90;;;;;;4908564;29;20473;-85
2023/08/15 00:25:36;;;;;;;19.40;18.30;;;23.60;99.90;;;;;;4906729;29;20485;-86
2023/08/15 00:28:09;;;;;;;18.27;17.47;;;23.70;1.00;;;;;;4905012;29;21028;-85
2023/08/15 00:30:37;;;;;;;18.90;18.10;;;23.60;99.90;;;;;;4906884;29;20446;-85
2023/08/15 00:33:13;;;;;;;19.13;18.23;;;23.70;99.90;;;;;;4911183;29;20454;-85
2023/08/15 00:35:47;;;;;;;18.93;18.13;;;23.70;99.90;;;;;;4908399;29;20859;-87
2023/08/15 00:38:22;;;;;;;20.00;18.83;;;23.60;99.90;;;;;;4905908;29;20482;-85
2023/08/15 00:40:59;;;;;;;19.13;18.10;;;23.60;99.90;;;;;;4907556;29;20462;-85
2023/08/15 00:43:37;;;;;;;18.60;17.70;;;23.60;99.90;;;;;;4920947;29;20498;-85
2023/08/15 00:46:11;;;;;;;18.57;17.67;;;23.60;99.90;;;;;;4907756;29;20802;-86
2023/08/15 00:48:51;;;;;;;18.90;18.10;;;23.50;99.90;;;;;;4902993;29;20465;-86
2023/08/15 00:51:27;;;;;;;20.27;18.87;;;23.50;99.90;;;;;;4908428;29;20461;-85
2023/08/15 00:54:02;;;;;;;18.13;17.37;;;23.60;99.90;;;;;;4906484;29;20450;-86
2023/08/15 00:56:35;;;;;;;19.47;18.33;;;23.50;99.90;;;;;;4905607;29;21059;-86
2023/08/15 00:59:10;;;;;;;18.43;17.63;;;23.50;99.90;;;;;;4906155;29;20485;-85
2023/08/15 01:01:49;;;;;;;19.10;18.20;;;23.50;99.90;;;;;;4905058;29;20450;-85
2023/08/15 01:04:24;;;;;;;18.60;17.70;;;23.50;99.90;;;;;;4903548;29;20470;-86
2023/08/15 01:07:04;;;;;;;18.53;17.83;;;23.40;99.90;;;;;;4911615;29;20482;-85
2023/08/15 01:09:40;;;;;;;18.47;17.60;;;23.40;99.90;;;;;;4902219;29;20545;-86
2023/08/15 01:12:22;;;;;;;19.63;18.63;;;23.30;99.90;;;;;;4904537;29;20465;-85
2023/08/15 01:14:58;;;;;;;19.13;18.33;;;23.30;99.90;;;;;;4920785;29;20455;-87
2023/08/15 01:17:36;;;;;;;18.60;17.70;;;23.30;99.90;;;;;;4904491;29;20442;-85
2023/08/15 01:20:14;;;;;;;20.07;18.93;;;23.30;99.90;;;;;;4906429;29;20850;-86
2023/08/15 01:22:48;;;;;;;19.20;18.10;;;23.20;99.90;;;;;;4909175;29;20558;-88
2023/08/15 01:25:26;;;;;;;20.10;19.10;;;23.30;99.90;;;;;;4903752;29;20931;-85
2023/08/15 01:27:58;;;;;;;19.90;18.90;;;23.30;99.90;;;;;;4907373;29;20670;-84
2023/08/15 01:30:29;;;;;;;19.63;18.70;;;23.30;99.90;;;;;;4904737;29;20449;-85
2023/08/15 01:33:07;;;;;;;19.70;18.70;;;23.30;99.90;;;;;;4901646;29;20458;-86
2023/08/15 01:35:43;;;;;;;19.33;18.53;;;23.20;99.90;;;;;;4904445;29;20498;-85
2023/08/15 01:38:25;;;;;;;18.23;17.43;;;23.30;99.90;;;;;;4902502;29;20446;-89
2023/08/15 01:41:01;;;;;;;19.33;18.33;;;23.20;99.90;;;;;;4903396;29;20530;-86
2023/08/15 01:43:36;;;;;;;19.43;18.53;;;23.10;99.90;;;;;;4905298;29;20466;-85
2023/08/15 01:46:09;;;;;;;18.70;17.90;;;23.10;99.90;;;;;;4900354;29;20980;-85
2023/08/15 01:48:44;;;;;;;19.50;18.40;;;23.10;99.90;;;;;;4901297;29;20466;-85
2023/08/15 01:51:13;;;;;;;19.27;18.37;;;23.00;99.90;;;;;;4906137;29;20818;-85
2023/08/15 01:53:55;;;;;;;18.33;17.63;;;23.10;99.90;;;;;;4905197;29;20453;-85
2023/08/15 01:56:27;;;;;;;19.37;18.27;;;23.00;99.90;;;;;;4903996;29;20507;-85
2023/08/15 01:58:59;;;;;;;19.30;18.40;;;23.00;99.90;;;;;;4902385;29;20553;-86
2023/08/15 02:01:33;;;;;;;19.57;18.43;;;23.00;99.90;;;;;;4903699;29;20460;-87
2023/08/15 02:04:07;;;;;;;19.20;18.20;;;23.00;99.90;;;;;;4905486;29;21106;-87
2023/08/15 02:06:36;;;;;;;19.07;18.20;;;23.10;99.90;;;;;;4903236;29;20480;-87
2023/08/15 02:09:08;;;;;;;19.03;18.33;;;23.00;99.90;;;;;;4903692;29;20489;-83
2023/08/15 02:11:45;;;;;;;19.30;18.40;;;23.10;99.90;;;;;;4905541;29;21000;-85
2023/08/15 02:14:20;;;;;;;19.03;18.20;;;23.10;99.90;;;;;;4912621;29;20465;-85
2023/08/15 02:16:56;;;;;;;18.70;17.90;;;23.00;99.90;;;;;;4907827;29;20485;-85
2023/08/15 02:19:31;;;;;;;18.23;17.23;;;23.00;99.90;;;;;;4912442;29;20461;-87
2023/08/15 02:22:06;;;;;;;18.70;17.77;;;23.00;99.90;;;;;;4907103;29;20599;-90
2023/08/15 02:24:42;;;;;;;18.00;17.30;;;22.90;99.90;;;;;;4909614;29;20487;-87
2023/08/15 02:27:12;;;;;;;18.40;17.43;;;22.90;1.00;;;;;;4908072;29;20489;-86
2023/08/15 02:29:46;;;;;;;17.63;17.03;;;22.90;1.00;;;;;;4909343;29;20476;-87
2023/08/15 02:32:23;;;;;;;19.23;18.23;;;22.90;1.00;;;;;;4907744;29;20963;-85
2023/08/15 02:35:02;;;;;;;18.27;17.47;;;22.90;1.00;;;;;;4912173;29;20458;-85
2023/08/15 02:37:36;;;;;;;18.90;17.90;;;22.90;99.90;;;;;;4910859;29;20981;-85
2023/08/15 02:40:13;;;;;;;19.30;18.30;;;22.90;99.90;;;;;;4905051;29;21167;-86
2023/08/15 02:42:46;;;;;;;19.23;18.13;;;22.90;1.00;;;;;;4913544;29;20467;-85
2023/08/15 02:45:21;;;;;;;18.80;17.77;;;22.90;1.00;;;;;;4910255;29;20480;-86
2023/08/15 02:47:55;;;;;;;18.70;17.90;;;22.90;1.00;;;;;;4911641;29;20457;-85
2023/08/15 02:50:26;;;;;;;18.60;17.60;;;22.90;1.00;;;;;;4908992;29;20450;-85
2023/08/15 02:53:09;;;;;;;18.90;18.10;;;22.90;1.00;;;;;;4913175;29;20451;-85
2023/08/15 02:55:55;;;;;;;19.10;18.30;;;22.90;1.00;;;;;;4907542;29;20485;-86
2023/08/15 02:58:36;;;;;;;18.80;18.00;;;22.90;1.00;;;;;;4906200;29;20462;-85
2023/08/15 03:01:07;;;;;;;18.10;17.40;;;22.80;1.00;;;;;;4911008;29;20469;-86
2023/08/15 03:03:44;;;;;;;19.63;18.63;;;22.80;1.00;;;;;;4908725;29;20533;-86
2023/08/15 03:06:16;;;;;;;18.60;17.83;;;22.80;1.00;;;;;;4907156;29;20480;-87
2023/08/15 03:08:57;;;;;;;19.63;18.53;;;22.80;1.00;;;;;;4908774;29;20545;-84
2023/08/15 03:11:26;;;;;;;19.00;18.07;;;22.80;1.00;;;;;;4909603;29;20517;-84
2023/08/15 03:14:08;;;;;;;19.43;18.63;;;22.80;1.00;;;;;;4908175;29;20477;-86
2023/08/15 03:16:44;;;;;;;19.30;18.40;;;22.80;1.00;;;;;;4905569;29;20490;-85
2023/08/15 03:19:16;;;;;;;18.77;17.87;;;22.90;1.00;;;;;;4906055;29;20477;-86
2023/08/15 03:21:53;;;;;;;18.67;17.60;;;22.90;1.00;;;;;;4905259;29;20462;-85
2023/08/15 03:24:28;;;;;;;19.80;18.70;;;22.80;99.90;;;;;;4907420;29;20524;-85
2023/08/15 03:26:56;;;;;;;18.57;17.83;;;22.80;99.90;;;;;;4915081;29;20525;-85
2023/08/15 03:29:47;;;;;;;18.97;18.00;;;22.70;99.90;;;;;;4912023;29;20455;-87
2023/08/15 03:32:24;;;;;;;19.67;18.50;;;22.60;1.00;;;;;;4908705;29;20530;-85
2023/08/15 03:34:56;;;;;;;19.40;18.50;;;22.60;1.00;;;;;;4910326;29;20471;-86
2023/08/15 03:37:35;;;;;;;18.67;17.63;;;22.50;1.00;;;;;;4904704;29;20539;-86
2023/08/15 03:40:14;;;;;;;19.60;18.60;;;22.60;1.00;;;;;;4906106;29;21018;-86
2023/08/15 03:42:47;;;;;;;18.80;17.90;;;22.50;1.00;;;;;;4906316;29;20474;-85
2023/08/15 03:45:32;;;;;;;19.60;18.53;;;22.60;1.00;;;;;;4904237;29;20481;-85
2023/08/15 03:48:12;;;;;;;21.17;19.57;;;22.50;1.00;;;;;;4908330;29;20923;-86
2023/08/15 03:50:45;;;;;;;19.60;18.60;;;22.50;1.00;;;;;;4904626;29;20454;-86
2023/08/15 03:53:19;;;;;;;19.43;18.53;;;22.60;1.00;;;;;;4909695;29;20458;-85
2023/08/15 03:55:56;;;;;;;18.90;18.00;;;22.60;1.00;;;;;;4907041;29;20536;-86
2023/08/15 03:58:31;;;;;;;20.20;19.30;;;22.50;1.00;;;;;;4909402;29;20553;-85
2023/08/15 04:01:07;;;;;;;19.67;18.57;;;22.50;1.00;;;;;;4907777;29;20486;-88
2023/08/15 04:03:41;;;;;;;20.10;19.20;;;22.50;1.00;;;;;;4905907;29;20475;-86
2023/08/15 04:06:19;;;;;;;19.60;18.63;;;22.60;1.00;;;;;;4902092;29;20509;-85
2023/08/15 04:08:53;;;;;;;19.57;18.70;;;22.50;1.00;;;;;;4907155;29;20501;-85
2023/08/15 04:11:30;;;;;;;21.10;19.77;;;22.50;1.00;;;;;;4904061;29;20578;-86
2023/08/15 04:14:06;;;;;;;20.97;19.90;;;22.50;1.00;;;;;;4905223;29;20546;-87
2023/08/15 04:16:41;;;;;;;19.97;18.90;;;22.50;1.00;;;;;;4903505;29;20517;-87
2023/08/15 04:19:22;;;;;;;22.27;20.70;;;22.50;1.00;;;;;;4908316;29;20457;-85
2023/08/15 04:21:55;;;;;;;21.63;19.87;;;22.50;1.00;;;;;;4904107;29;20526;-87
2023/08/15 04:24:28;;;;;;;21.03;19.77;;;22.50;1.00;;;;;;4904846;29;20456;-86
2023/08/15 04:27:05;;;;;;;20.83;19.87;;;22.50;1.00;;;;;;4903774;29;20565;-85
2023/08/15 04:29:39;;;;;;;20.77;19.67;;;22.50;1.00;;;;;;4903408;29;20516;-87
2023/08/15 04:32:30;;;;;;;20.67;19.37;;;22.50;1.00;;;;;;4919535;29;20466;-85
2023/08/15 04:35:03;;;;;;;19.90;19.00;;;22.50;1.00;;;;;;4903043;29;20489;-87
2023/08/15 04:37:36;;;;;;;20.20;19.30;;;22.50;1.00;;;;;;4906909;29;20496;-87
2023/08/15 04:40:12;;;;;;;21.53;20.47;;;22.50;1.00;;;;;;4901982;29;20467;-88
2023/08/15 04:42:46;;;;;;;21.47;20.37;;;22.50;1.00;;;;;;4903276;29;20470;-84
2023/08/15 04:45:20;;;;;;;21.97;20.57;;;22.50;1.00;;;;;;4903648;29;20482;-86
2023/08/15 04:48:01;;;;;;;20.90;19.90;;;22.50;1.00;;;;;;4905069;29;20901;-85
2023/08/15 04:50:33;;;;;;;21.50;20.30;;;22.60;1.00;;;;;;4905611;29;20854;-85
2023/08/15 04:53:04;;;;;;;20.57;19.40;;;22.60;1.00;;;;;;4905152;29;20979;-85
2023/08/15 04:55:39;;;;;;;21.03;19.83;;;22.60;1.00;;;;;;4902924;29;20481;-86
2023/08/15 04:58:14;;;;;;;20.93;19.93;;;22.60;1.00;;;;;;4903514;29;20458;-85
2023/08/15 05:00:44;;;;;;;22.13;20.93;;;22.70;1.00;;;;;;4904815;29;20482;-85
2023/08/15 05:03:29;;;;;;;22.47;21.17;;;22.70;1.00;;;;;;4901197;29;20530;-85
2023/08/15 05:06:03;;;;;;;22.13;21.03;;;22.70;1.00;;;;;;4902693;29;20488;-85
2023/08/15 05:08:34;;;;;;;21.57;20.50;;;22.80;1.00;;;;;;4909343;29;21162;-86
2023/08/15 05:11:10;;;;;;;21.70;20.70;;;22.80;1.00;;;;;;4904918;29;20543;-87
2023/08/15 05:13:43;;;;;;;21.17;20.17;;;22.80;1.00;;;;;;4904787;29;20549;-85
2023/08/15 05:16:17;;;;;;;23.03;21.83;;;22.80;1.00;;;;;;4905196;29;20488;-85
2023/08/15 05:18:50;;;;;;;22.83;21.53;;;22.80;1.00;;;;;;4907922;29;20461;-85
2023/08/15 05:21:24;;;;;;;22.20;21.07;;;22.80;1.00;;;;;;4904174;29;20489;-86
2023/08/15 05:24:00;;;;;;;21.43;20.53;;;22.90;1.00;;;;;;4909756;29;20522;-85
2023/08/15 05:26:37;;;;;;;22.20;20.80;;;22.90;1.00;;;;;;4903003;29;21120;-85
2023/08/15 05:29:24;;;;;;;20.80;19.80;;;23.00;1.00;;;;;;4903684;29;20447;-84
2023/08/15 05:31:56;;;;;;;20.87;19.97;;;23.00;1.00;;;;;;4918649;29;20528;-87
2023/08/15 05:34:37;;;;;;;21.23;20.23;;;23.00;1.00;;;;;;4906605;29;20541;-86
2023/08/15 05:37:09;;;;;;;22.47;21.17;;;23.00;1.00;;;;;;4919787;29;20482;-85
2023/08/15 05:39:48;;;;;;;21.87;20.40;;;23.00;1.00;;;;;;4907392;29;20464;-86
2023/08/15 05:42:20;;;;;;;22.10;20.87;;;23.00;1.00;;;;;;4902270;29;20481;-87
2023/08/15 05:44:59;;;;;;;22.00;20.97;;;23.00;1.00;;;;;;4906181;29;20880;-85
2023/08/15 05:47:36;;;;;;;21.97;20.57;;;23.00;1.00;;;;;;4910754;29;20453;-87
2023/08/15 05:50:12;;;;;;;22.07;21.07;;;23.10;1.00;;;;;;4923996;29;20469;-85
2023/08/15 05:52:48;;;;;;;22.27;20.87;;;23.10;99.90;;;;;;4914868;29;20461;-86
2023/08/15 05:55:23;;;;;;;22.23;21.20;;;23.10;99.90;;;;;;4914364;29;20478;-85
2023/08/15 05:57:54;;;;;;;22.87;21.57;;;23.10;99.90;;;;;;4913378;29;20528;-87
2023/08/15 06:00:26;;;;;;;22.37;21.17;;;23.10;99.90;;;;;;4911684;29;20552;-85
2023/08/15 06:02:57;;;;;;;23.10;21.70;;;23.10;99.90;;;;;;4915534;29;21053;-85
2023/08/15 06:05:34;;;;;;;22.83;21.50;;;23.10;99.90;;;;;;4906629;29;21011;-84
2023/08/15 06:08:16;;;;;;;22.77;21.47;;;23.10;99.90;;;;;;4916705;29;20470;-85
2023/08/15 06:10:50;;;;;;;21.67;20.57;;;23.10;1.00;;;;;;4912248;29;20477;-85
2023/08/15 06:13:24;;;;;;;21.53;20.53;;;23.10;1.00;;;;;;4911592;29;20458;-85
2023/08/15 06:15:53;;;;;;;21.50;20.40;;;23.10;1.00;;;;;;4911280;29;20461;-86
2023/08/15 06:18:26;;;;;;;22.87;21.47;;;23.10;1.00;;;;;;4907576;29;20458;-89
2023/08/15 06:21:01;;;;;;;22.17;21.17;;;23.20;1.00;;;;;;4908702;29;20480;-87
2023/08/15 06:23:43;;;;;;;23.23;22.07;;;23.30;99.90;;;;;;4907391;29;20472;-86
2023/08/15 06:26:16;;;;;;;22.63;21.47;;;23.40;99.90;;;;;;4915693;29;20529;-86
2023/08/15 06:28:45;;;;;;;23.37;22.07;;;23.30;99.90;;;;;;4908385;29;20973;-86
2023/08/15 06:31:25;;;;;;;23.70;22.30;;;23.40;99.90;;;;;;4911017;29;20652;-85
2023/08/15 06:33:59;;;;;;;22.80;21.60;;;23.40;99.90;;;;;;4911245;29;20459;-85
2023/08/15 06:36:33;;;;;;;23.70;22.20;;;23.60;99.90;;;;;;4909678;29;20489;-86
2023/08/15 06:39:09;;;;;;;23.20;21.77;;;23.90;99.90;;;;;;4911750;29;20457;-85
2023/08/15 06:41:43;;;;;;;22.70;21.50;;;24.20;99.90;;;;;;4924602;29;20493;-85
2023/08/15 06:44:16;;;;;;;23.40;22.20;;;24.40;1.00;;;;;;4911782;29;20556;-87
2023/08/15 06:46:49;;;;;;;23.23;21.80;;;24.50;1.00;;;;;;4912347;29;20583;-88
2023/08/15 06:49:23;;;;;;;22.63;21.60;;;24.50;1.00;;;;;;4907220;29;20453;-85
2023/08/15 06:51:58;;;;;;;23.47;22.20;;;24.50;99.90;;;;;;4923031;28;20467;-84
2023/08/15 06:54:37;;;;;;;23.03;21.77;;;24.50;1.00;;;;;;4909083;29;20461;-86
2023/08/15 06:57:09;;;;;;;22.80;21.60;;;24.50;99.90;;;;;;4907760;29;20484;-85
2023/08/15 06:59:40;;;;;;;22.97;21.70;;;24.60;99.90;;;;;;4922333;29;20493;-85
2023/08/15 07:02:15;;;;;;;22.33;21.00;;;24.60;1.00;;;;;;4903345;29;20485;-87
2023/08/15 07:04:50;;;;;;;22.27;20.97;;;24.70;1.00;;;;;;4905189;29;20831;-90
2023/08/15 07:07:26;;;;;;;22.20;21.20;;;24.90;99.90;;;;;;4908269;29;20458;-85
2023/08/15 07:10:00;;;;;;;22.37;21.27;;;25.10;99.90;;;;;;4907791;29;20465;-84
2023/08/15 07:12:35;;;;;;;23.00;21.67;;;25.30;67.00;;;;;;4908091;29;20461;-85
2023/08/15 07:15:27;;;;;;;22.37;21.10;;;25.30;1.00;;;;;;4907273;29;20501;-87
2023/08/15 07:18:14;;;;;;;23.03;21.70;;;25.40;99.90;;;;;;4904917;29;20556;-85
2023/08/15 07:20:51;;;;;;;22.97;21.77;;;25.50;99.90;;;;;;4905045;29;20473;-85
2023/08/15 07:23:46;;;;;;;24.07;22.57;;;25.50;41.60;;;;;;4905410;29;20506;-85
2023/08/15 07:26:29;;;;;;;23.87;22.67;;;25.70;1.00;;;;;;4907340;29;20921;-85
2023/08/15 07:29:00;;;;;;;23.80;22.37;;;25.80;1.00;;;;;;4907142;29;20450;-87
2023/08/15 07:31:34;;;;;;;22.87;21.73;;;25.90;1.00;;;;;;4909059;29;20869;-85
2023/08/15 07:34:05;;;;;;;23.37;21.87;;;25.90;1.00;;;;;;4907914;29;20450;-85
2023/08/15 07:36:54;;;;;;;23.13;21.73;;;25.90;1.00;;;;;;4905310;29;20986;-86
2023/08/15 07:39:45;;;;;;;22.43;21.23;;;25.90;1.00;;;;;;4904690;29;20446;-86
2023/08/15 07:42:15;;;;;;;22.70;21.57;;;25.90;1.00;;;;;;4906615;29;20493;-86
2023/08/15 07:44:54;;;;;;;22.90;21.80;;;25.80;99.90;;;;;;4911849;29;20469;-86
2023/08/15 07:47:29;;;;;;;22.70;21.57;;;25.80;99.90;;;;;;4921585;29;20557;-86
2023/08/15 07:50:16;;;;;;;22.40;21.40;;;25.90;1.00;;;;;;4903229;29;20458;-85
2023/08/15 07:52:58;;;;;;;22.87;21.67;;;25.90;99.90;;;;;;4907579;29;20856;-86
2023/08/15 07:55:37;;;;;;;22.87;21.57;;;26.00;99.90;;;;;;4909647;29;20462;-86
2023/08/15 07:58:10;;;;;;;22.50;21.40;;;26.00;1.00;;;;;;4909316;29;20473;-85
2023/08/15 08:00:45;;;;;;;22.07;21.07;;;26.00;1.00;;;;;;4902607;29;20458;-85
2023/08/15 08:03:21;;;;;;;23.30;22.07;;;26.00;1.00;;;;;;4910778;29;20489;-86
2023/08/15 08:05:56;;;;;;;22.87;21.47;;;26.00;1.00;;;;;;4912478;29;20818;-88
2023/08/15 08:08:29;;;;;;;21.83;20.57;;;26.00;99.90;;;;;;4903068;29;20454;-87
2023/08/15 08:11:15;;;;;;;22.43;21.23;;;26.00;99.90;;;;;;4906665;29;20455;-87
2023/08/15 08:13:53;;;;;;;22.70;21.30;;;26.10;99.90;;;;;;4904459;29;20470;-86
2023/08/15 08:16:34;;;;;;;22.60;21.27;;;26.10;1.00;;;;;;4908602;29;20473;-86
2023/08/15 08:19:11;;;;;;;22.53;21.20;;;26.00;1.00;;;;;;4902994;29;20455;-85
2023/08/15 08:21:48;;;;;;;24.23;22.93;;;26.10;99.90;;;;;;4908240;29;20442;-85
2023/08/15 08:24:27;;;;;;;22.27;20.90;;;26.20;99.90;;;;;;4907229;29;20862;-87
2023/08/15 08:27:11;;;;;;;24.20;23.00;;;26.20;99.90;;;;;;4905619;29;20515;-85
2023/08/15 08:29:51;;;;;;;24.13;22.53;;;26.20;1.00;;;;;;4907229;29;20467;-86
2023/08/15 08:32:22;;;;;;;24.50;23.00;;;26.30;99.90;;;;;;4905916;29;20457;-85
2023/08/15 08:35:05;;;;;;;23.77;22.47;;;26.30;1.00;;;;;;4904102;29;20465;-86
2023/08/15 08:37:44;;;;;;;22.10;20.63;;;26.30;1.00;;;;;;4903953;29;20470;-85
2023/08/15 08:40:17;;;;;;;20.50;19.50;;;26.20;99.90;;;;;;4902207;29;20470;-86
2023/08/15 08:42:54;;;;;;;19.70;18.80;;;26.10;1.00;;;;;;4905098;29;20509;-88
2023/08/15 08:45:36;;;;;;;20.43;19.17;;;26.10;1.00;;;;;;4910818;29;20481;-85
2023/08/15 08:48:16;;;;;;;19.33;18.53;;;26.10;1.00;;;;;;4905066;29;20644;-84
2023/08/15 08:51:00;;;;;;;19.87;18.67;;;26.20;1.00;;;;;;4903096;29;20477;-85
2023/08/15 08:53:38;;;;;;;19.27;18.47;;;26.20;1.00;;;;;;4906706;29;20475;-85
2023/08/15 08:56:12;;;;;;;20.00;18.90;;;26.20;1.00;;;;;;4909585;29;20834;-85
2023/08/15 08:59:02;;;;;;;18.97;18.27;;;26.20;99.90;;;;;;4906732;29;20457;-85
2023/08/15 09:01:39;;;;;;;18.80;18.00;;;26.20;1.00;;;;;;4907092;29;20458;-84
2023/08/15 09:04:19;;;;;;;18.57;17.77;;;26.40;99.90;;;;;;4919807;29;20521;-85
2023/08/15 09:06:55;;;;;;;19.37;18.20;;;26.40;99.90;;;;;;4905813;29;20485;-86
2023/08/15 09:09:44;;;;;;;19.07;18.17;;;26.50;99.90;;;;;;4904101;29;20831;-85
2023/08/15 09:12:33;;;;;;;18.40;17.67;;;26.50;99.90;;;;;;4905565;29;20487;-85
2023/08/15 09:15:25;;;;;;;18.60;17.70;;;26.70;99.90;;;;;;4920299;29;20486;-85
2023/08/15 09:18:08;;;;;;;18.50;17.40;;;26.70;99.90;;;;;;4920423;29;20481;-86
2023/08/15 09:20:48;;;;;;;18.20;17.40;;;26.90;99.90;;;;;;4902102;29;20474;-86
2023/08/15 09:23:22;;;;;;;18.13;17.47;;;26.90;99.90;;;;;;4903145;29;20518;-86
2023/08/15 09:26:14;;;;;;;18.03;17.40;;;26.90;99.90;;;;;;4905929;29;21047;-85
2023/08/15 09:28:48;;;;;;;17.23;16.63;;;26.90;99.90;;;;;;4902947;29;20814;-86
2023/08/15 09:31:24;;;;;;;17.70;17.07;;;26.90;99.90;;;;;;4900902;29;20565;-84
2023/08/15 09:33:58;;;;;;;17.93;17.23;;;26.90;99.90;;;;;;4904654;29;20834;-84
2023/08/15 09:36:38;;;;;;;17.50;16.90;;;26.90;99.90;;;;;;4905092;29;20489;-86
2023/08/15 09:39:15;;;;;;;18.00;17.23;;;26.90;99.90;;;;;;4903103;29;20938;-86
2023/08/15 09:41:56;;;;;;;18.50;17.70;;;27.00;99.90;;;;;;4903779;29;20493;-87
2023/08/15 09:44:36;;;;;;;18.50;17.80;;;27.20;99.90;;;;;;4905390;29;20572;-87
2023/08/15 09:47:25;;;;;;;19.83;18.30;;;27.30;99.90;;;;;;4902232;29;20486;-85
2023/08/15 09:50:15;;;;;;;17.40;16.60;;;27.40;99.90;;;;;;4902052;29;20944;-86
2023/08/15 09:52:54;;;;;;;18.40;17.40;;;27.50;99.90;;;;;;4904503;29;20459;-87
2023/08/15 09:55:33;;;;;;;19.33;18.13;;;27.40;99.90;;;;;;4906431;29;20474;-84
2023/08/15 09:58:11;;;;;;;18.77;17.87;;;27.30;99.90;;;;;;4904678;29;20461;-85
2023/08/15 10:00:59;;;;;;;18.40;17.60;;;27.20;99.90;;;;;;4906316;29;20454;-86
2023/08/15 10:03:37;;;;;;;18.17;17.40;;;27.10;99.90;;;;;;4905946;29;20482;-85
2023/08/15 10:06:14;;;;;;;18.40;17.50;;;27.00;99.90;;;;;;4905411;29;20494;-86
2023/08/15 10:08:53;;;;;;;18.23;17.43;;;27.00;99.90;;;;;;4906605;29;20510;-85
2023/08/15 10:11:32;;;;;;;17.63;16.80;;;27.00;99.90;;;;;;4904407;29;20465;-87
2023/08/15 10:14:12;;;;;;;18.07;17.00;;;26.90;99.90;;;;;;4904324;29;20446;-85
2023/08/15 10:16:57;;;;;;;18.47;17.50;;;26.90;99.90;;;;;;4917811;29;20486;-85
2023/08/15 10:19:46;;;;;;;18.17;17.50;;;26.90;99.90;;;;;;4903383;29;20981;-86
2023/08/15 10:22:30;;;;;;;17.73;17.10;;;26.90;99.90;;;;;;4903112;29;20465;-86
2023/08/15 10:25:19;;;;;;;19.03;17.83;;;27.00;99.90;;;;;;4906607;29;20500;-85
2023/08/15 10:27:57;;;;;;;18.27;17.37;;;27.00;99.90;;;;;;4905808;29;20473;-84
2023/08/15 10:30:33;;;;;;;17.70;17.00;;;27.10;99.90;;;;;;4901068;29;20455;-85
2023/08/15 10:33:17;;;;;;;17.00;16.40;;;27.10;99.90;;;;;;4908391;29;20454;-86
2023/08/15 10:35:53;;;;;;;17.27;16.33;;;27.20;99.90;;;;;;4910420;29;20557;-88
2023/08/15 10:38:35;;;;;;;17.43;16.50;;;27.40;99.90;;;;;;4911923;29;20464;-85
2023/08/15 10:41:19;;;;;;;16.53;15.80;;;27.50;99.90;;;;;;4907762;29;20554;-84
2023/08/15 10:43:58;;;;;;;16.30;15.70;;;27.50;99.90;;;;;;4908249;29;21083;-85
2023/08/15 10:46:36;;;;;;;16.70;16.00;;;27.50;99.90;;;;;;4910216;29;20537;-85
2023/08/15 10:49:13;;;;;;;16.27;15.67;;;27.50;99.90;;;;;;4908003;29;20479;-85
2023/08/15 10:51:59;;;;;;;16.40;15.80;;;27.40;99.90;;;;;;4908625;29;20969;-85
2023/08/15 10:54:37;;;;;;;16.50;15.90;;;27.40;99.90;;;;;;4922750;29;20458;-86
2023/08/15 10:57:11;;;;;;;16.47;15.87;;;27.40;99.90;;;;;;4907804;29;21003;-86
2023/08/15 10:59:40;;;;;;;17.03;16.33;;;27.40;99.90;;;;;;4908322;29;20458;-85
2023/08/15 11:02:15;;;;;;;16.80;16.20;;;27.40;99.90;;;;;;4904584;29;20457;-85
2023/08/15 11:04:45;;;;;;;16.80;15.97;;;27.30;99.90;;;;;;4904508;29;20545;-86
2023/08/15 11:07:27;;;;;;;15.97;15.47;;;27.40;99.90;;;;;;4905232;29;20462;-85
2023/08/15 11:10:00;;;;;;;16.77;16.17;;;27.50;99.90;;;;;;4913165;29;20458;-85
2023/08/15 11:12:34;;;;;;;16.93;16.40;;;27.60;99.90;;;;;;4922847;29;20454;-86
2023/08/15 11:15:15;;;;;;;16.30;15.70;;;27.80;99.90;;;;;;4907063;29;20827;-85
2023/08/15 11:17:46;;;;;;;16.47;15.87;;;27.90;99.90;;;;;;4907188;29;20461;-85
2023/08/15 11:20:20;;;;;;;16.33;15.60;;;27.90;99.90;;;;;;4910764;29;20834;-85
2023/08/15 11:22:58;;;;;;;16.57;15.97;;;27.90;99.90;;;;;;4909671;29;20541;-85
2023/08/15 11:25:31;;;;;;;16.63;16.07;;;28.00;99.90;;;;;;4922871;29;20587;-85
2023/08/15 11:28:06;;;;;;;17.17;16.53;;;28.00;99.90;;;;;;4909448;29;20453;-86
2023/08/15 11:30:40;;;;;;;16.57;16.00;;;28.00;99.90;;;;;;4906701;29;20459;-88
2023/08/15 11:33:11;;;;;;;17.60;16.67;;;28.00;99.90;;;;;;4908456;29;20482;-85
2023/08/15 11:35:45;;;;;;;16.63;15.80;;;27.90;99.90;;;;;;4904526;29;20477;-86
2023/08/15 11:38:31;;;;;;;16.53;15.73;;;27.90;99.90;;;;;;4918601;29;20465;-88
2023/08/15 11:41:07;;;;;;;16.50;15.70;;;27.90;99.90;;;;;;4902840;29;20466;-87
2023/08/15 11:43:41;;;;;;;16.77;15.97;;;27.90;99.90;;;;;;4903284;29;20474;-88
2023/08/15 11:46:14;;;;;;;16.60;15.80;;;28.00;99.90;;;;;;4909268;29;20466;-85
2023/08/15 11:48:49;;;;;;;16.37;15.87;;;28.10;99.90;;;;;;4906383;29;20465;-85
2023/08/15 11:51:24;;;;;;;16.70;16.10;;;28.10;99.90;;;;;;4910156;29;21006;-85
2023/08/15 11:53:54;;;;;;;16.73;15.77;;;28.20;99.90;;;;;;4903332;29;20498;-89
2023/08/15 11:56:23;;;;;;;16.47;15.67;;;28.20;99.90;;;;;;4907879;29;20485;-86
2023/08/15 11:59:08;;;;;;;17.20;16.50;;;28.10;99.90;;;;;;4905194;29;20474;-85
2023/08/15 12:01:46;;;;;;;17.10;16.50;;;28.10;99.90;;;;;;4904358;29;20915;-86
2023/08/15 12:04:23;;;;;;;16.00;15.50;;;28.00;99.90;;;;;;4903225;29;20566;-87
2023/08/15 12:06:56;;;;;;;15.57;15.07;;;28.10;99.90;;;;;;4905282;29;20780;-85
2023/08/15 12:09:31;;;;;;;16.73;16.20;;;28.10;99.90;;;;;;4905595;29;20454;-85
2023/08/15 12:12:09;;;;;;;16.40;15.70;;;28.10;99.90;;;;;;4905389;29;20493;-84
2023/08/15 12:14:41;;;;;;;16.70;16.00;;;28.10;99.90;;;;;;4902573;29;20453;-87
2023/08/15 12:17:20;;;;;;;17.00;16.37;;;28.10;99.90;;;;;;4906263;29;20443;-87
2023/08/15 12:19:53;;;;;;;17.00;16.30;;;28.10;99.90;;;;;;4906246;29;20458;-85
2023/08/15 12:22:29;;;;;;;17.57;16.87;;;28.10;99.90;;;;;;4921155;29;20494;-85
2023/08/15 12:25:11;;;;;;;16.40;15.80;;;28.10;99.90;;;;;;4903573;29;20493;-86
2023/08/15 12:27:45;;;;;;;16.30;15.70;;;28.10;99.90;;;;;;4911553;29;20978;-86
2023/08/15 12:30:20;;;;;;;17.67;16.87;;;28.10;99.90;;;;;;4900827;29;20476;-86
2023/08/15 12:32:57;;;;;;;16.50;16.00;;;28.20;99.90;;;;;;4906619;29;20458;-85
2023/08/15 12:35:26;;;;;;;17.40;16.53;;;28.30;99.90;;;;;;4901860;29;20482;-88
2023/08/15 12:38:02;;;;;;;16.53;16.03;;;28.20;99.90;;;;;;4904035;29;20453;-85
2023/08/15 12:40:40;;;;;;;16.53;15.83;;;28.20;99.90;;;;;;4902719;29;20450;-87
2023/08/15 12:43:09;;;;;;;16.73;16.20;;;28.20;99.90;;;;;;4904500;29;20462;-86
2023/08/15 12:45:42;;;;;;;15.70;15.20;;;28.20;99.90;;;;;;4903376;29;20486;-85
2023/08/15 12:48:15;;;;;;;16.80;15.97;;;28.20;99.90;;;;;;4919285;29;20463;-86
2023/08/15 12:50:51;;;;;;;16.37;15.77;;;28.20;99.90;;;;;;4918998;29;20469;-87
2023/08/15 12:53:27;;;;;;;15.90;15.40;;;28.20;99.90;;;;;;4902977;29;20446;-86
2023/08/15 12:56:02;;;;;;;16.57;15.77;;;28.20;99.90;;;;;;4907304;29;20542;-85
2023/08/15 12:58:33;;;;;;;16.43;15.73;;;28.20;99.90;;;;;;4921075;29;20470;-86
2023/08/15 13:01:05;;;;;;;16.60;15.77;;;28.20;99.90;;;;;;4922280;29;20560;-85
2023/08/15 13:03:39;;;;;;;16.57;15.90;;;28.30;99.90;;;;;;4903108;29;20486;-85
2023/08/15 13:06:14;;;;;;;16.10;15.50;;;28.30;99.90;;;;;;4902378;29;20602;-88
2023/08/15 13:08:52;;;;;;;16.33;15.73;;;28.30;99.90;;;;;;4909269;29;20548;-88
2023/08/15 13:11:27;;;;;;;16.30;15.60;;;28.30;99.90;;;;;;4905423;29;20458;-85
2023/08/15 13:13:56;;;;;;;16.77;16.07;;;28.30;99.90;;;;;;4905844;29;20453;-85
2023/08/15 13:16:27;;;;;;;16.07;15.50;;;28.30;99.90;;;;;;4906669;29;20475;-85
2023/08/15 13:19:06;;;;;;;16.93;16.13;;;28.20;99.90;;;;;;4905484;29;20459;-85